createdAt,value
2018-09-28T00:00:41.260Z,1006.51
2018-09-28T00:01:41.273Z,1006.58
2018-09-28T00:02:41.241Z,1006.56
2018-09-28T00:03:41.226Z,1006.54
2018-09-28T00:04:41.221Z,1006.58
2018-09-28T00:05:41.209Z,1006.58
2018-09-28T00:06:41.198Z,1006.60
2018-09-28T00:07:41.208Z,1006.61
2018-09-28T00:08:41.172Z,1006.60
2018-09-28T00:09:41.170Z,1006.59
2018-09-28T00:10:41.163Z,1006.59
2018-09-28T00:11:41.158Z,1006.58
2018-09-28T00:12:41.153Z,1006.58
2018-09-28T00:13:41.122Z,1006.57
2018-09-28T00:14:41.126Z,1006.58
2018-09-28T00:15:41.096Z,1006.57
2018-09-28T00:16:41.091Z,1006.60
2018-09-28T00:17:41.097Z,1006.56
2018-09-28T00:18:41.070Z,1006.55
2018-09-28T00:19:41.084Z,1006.54
2018-09-28T00:20:41.043Z,1006.52
2018-09-28T00:21:41.034Z,1006.52
2018-09-28T00:22:41.040Z,1006.51
2018-09-28T00:23:41.011Z,1006.52
2018-09-28T00:24:41.025Z,1006.49
2018-09-28T00:25:40.993Z,1006.52
2018-09-28T00:26:40.996Z,1006.51
2018-09-28T00:27:40.997Z,1006.54
2018-09-28T00:28:40.956Z,1006.51
2018-09-28T00:29:40.967Z,1006.58
2018-09-28T00:30:40.956Z,1006.54
2018-09-28T00:31:40.930Z,1006.56
2018-09-28T00:32:40.933Z,1006.49
2018-09-28T00:33:40.905Z,1006.49
2018-09-28T00:34:40.918Z,1006.51
2018-09-28T00:35:40.944Z,1006.46
2018-09-28T00:36:40.881Z,1006.51
2018-09-28T00:37:40.864Z,1006.47
2018-09-28T00:38:40.856Z,1006.43
2018-09-28T00:39:40.845Z,1006.41
2018-09-28T00:40:40.847Z,1006.40
2018-09-28T00:41:40.825Z,1006.37
2018-09-28T00:42:40.817Z,1006.35
2018-09-28T00:43:40.794Z,1006.39
2018-09-28T00:44:40.811Z,1006.31
2018-09-28T00:45:40.782Z,1006.32
2018-09-28T00:46:40.765Z,1006.31
2018-09-28T00:47:40.765Z,1006.32
2018-09-28T00:48:40.750Z,1006.30
2018-09-28T00:49:40.758Z,1006.25
2018-09-28T00:50:40.723Z,1006.23
2018-09-28T00:51:40.715Z,1006.28
2018-09-28T00:52:40.699Z,1006.22
2018-09-28T00:53:40.713Z,1006.25
2018-09-28T00:54:40.709Z,1006.20
2018-09-28T00:55:40.672Z,1006.20
2018-09-28T00:56:40.661Z,1006.21
2018-09-28T00:57:40.649Z,1006.23
2018-09-28T00:58:40.638Z,1006.20
2018-09-28T00:59:40.629Z,1006.17
2018-09-28T01:00:40.638Z,1006.18
2018-09-28T01:01:40.609Z,1006.21
2018-09-28T01:02:40.595Z,1006.22
2018-09-28T01:03:40.587Z,1006.22
2018-09-28T01:04:40.574Z,1006.24
2018-09-28T01:05:40.560Z,1006.26
2018-09-28T01:06:40.579Z,1006.22
2018-09-28T01:07:40.537Z,1006.22
2018-09-28T01:08:40.531Z,1006.20
2018-09-28T01:09:40.521Z,1006.15
2018-09-28T01:10:40.508Z,1006.17
2018-09-28T01:11:40.501Z,1006.17
2018-09-28T01:12:40.504Z,1006.13
2018-09-28T01:13:40.493Z,1006.20
2018-09-28T01:14:40.466Z,1006.17
2018-09-28T01:15:40.505Z,1006.20
2018-09-28T01:16:40.458Z,1006.19
2018-09-28T01:17:40.461Z,1006.15
2018-09-28T01:18:40.443Z,1006.13
2018-09-28T01:19:40.407Z,1006.12
2018-09-28T01:20:40.408Z,1006.09
2018-09-28T01:21:40.392Z,1006.14
2018-09-28T01:22:40.384Z,1006.15
2018-09-28T01:23:40.405Z,1006.11
2018-09-28T01:24:40.383Z,1006.12
2018-09-28T01:25:40.371Z,1006.12
2018-09-28T01:26:40.345Z,1006.07
2018-09-28T01:27:40.347Z,1006.12
2018-09-28T01:28:40.312Z,1006.15
2018-09-28T01:29:40.304Z,1006.15
2018-09-28T01:30:40.291Z,1006.16
2018-09-28T01:31:40.286Z,1006.20
2018-09-28T01:32:40.317Z,1006.16
2018-09-28T01:33:40.400Z,1006.19
2018-09-28T01:34:40.249Z,1006.25
2018-09-28T01:35:40.236Z,1006.25
2018-09-28T01:36:40.236Z,1006.30
2018-09-28T01:37:40.237Z,1006.35
2018-09-28T01:38:40.216Z,1006.44
2018-09-28T01:39:40.207Z,1006.37
2018-09-28T01:40:40.182Z,1006.40
2018-09-28T01:41:40.175Z,1006.43
2018-09-28T01:42:40.184Z,1006.41
2018-09-28T01:43:40.152Z,1006.37
2018-09-28T01:44:40.147Z,1006.30
2018-09-28T01:45:40.133Z,1006.27
2018-09-28T01:46:40.122Z,1006.30
2018-09-28T01:47:40.130Z,1006.29
2018-09-28T01:48:40.098Z,1006.28
2018-09-28T01:49:40.087Z,1006.32
2018-09-28T01:50:40.137Z,1006.35
2018-09-28T01:51:40.074Z,1006.37
2018-09-28T01:52:40.077Z,1006.34
2018-09-28T01:53:40.044Z,1006.39
2018-09-28T01:54:40.036Z,1006.41
2018-09-28T01:55:40.026Z,1006.49
2018-09-28T01:56:40.017Z,1006.44
2018-09-28T01:57:40.021Z,1006.46
2018-09-28T01:58:39.993Z,1006.41
2018-09-28T01:59:39.984Z,1006.42
2018-09-28T02:00:39.985Z,1006.46
2018-09-28T02:01:39.958Z,1006.46
2018-09-28T02:02:39.949Z,1006.43
2018-09-28T02:03:39.935Z,1006.49
2018-09-28T02:04:39.942Z,1006.50
2018-09-28T02:05:39.946Z,1006.55
2018-09-28T02:06:39.909Z,1006.51
2018-09-28T02:07:39.894Z,1006.48
2018-09-28T02:08:39.889Z,1006.48
2018-09-28T02:09:39.910Z,1006.46
2018-09-28T02:10:39.866Z,1006.49
2018-09-28T02:11:39.858Z,1006.49
2018-09-28T02:12:39.929Z,1006.50
2018-09-28T02:13:39.829Z,1006.49
2018-09-28T02:14:39.818Z,1006.50
2018-09-28T02:15:39.837Z,1006.48
2018-09-28T02:16:39.802Z,1006.49
2018-09-28T02:17:39.821Z,1006.50
2018-09-28T02:18:39.781Z,1006.55
2018-09-28T02:19:39.773Z,1006.53
2018-09-28T02:20:39.753Z,1006.53
2018-09-28T02:21:39.816Z,1006.51
2018-09-28T02:22:39.736Z,1006.51
2018-09-28T02:23:39.734Z,1006.48
2018-09-28T02:24:39.709Z,1006.50
2018-09-28T02:25:39.701Z,1006.46
2018-09-28T02:26:39.727Z,1006.44
2018-09-28T02:27:39.694Z,1006.45
2018-09-28T02:28:39.685Z,1006.43
2018-09-28T02:29:39.661Z,1006.44
2018-09-28T02:30:39.651Z,1006.43
2018-09-28T02:31:39.662Z,1006.46
2018-09-28T02:32:39.626Z,1006.43
2018-09-28T02:33:39.616Z,1006.43
2018-09-28T02:34:39.613Z,1006.35
2018-09-28T02:35:39.594Z,1006.33
2018-09-28T02:36:39.605Z,1006.30
2018-09-28T02:37:39.597Z,1006.29
2018-09-28T02:38:39.561Z,1006.26
2018-09-28T02:39:39.549Z,1006.31
2018-09-28T02:40:39.547Z,1006.34
2018-09-28T02:41:39.550Z,1006.33
2018-09-28T02:42:39.522Z,1006.31
2018-09-28T02:43:39.513Z,1006.34
2018-09-28T02:44:39.501Z,1006.36
2018-09-28T02:45:39.490Z,1006.40
2018-09-28T02:46:39.502Z,1006.40
2018-09-28T02:47:39.468Z,1006.39
2018-09-28T02:48:39.461Z,1006.32
2018-09-28T02:49:39.472Z,1006.28
2018-09-28T02:50:39.438Z,1006.30
2018-09-28T02:51:39.542Z,1006.29
2018-09-28T02:52:39.410Z,1006.27
2018-09-28T02:53:39.405Z,1006.22
2018-09-28T02:54:39.414Z,1006.25
2018-09-28T02:55:39.388Z,1006.22
2018-09-28T02:56:39.394Z,1006.21
2018-09-28T02:57:39.396Z,1006.20
2018-09-28T02:58:39.350Z,1006.22
2018-09-28T02:59:39.336Z,1006.27
2018-09-28T03:00:39.349Z,1006.28
2018-09-28T03:01:39.319Z,1006.19
2018-09-28T03:02:39.333Z,1006.17
2018-09-28T03:03:39.328Z,1006.22
2018-09-28T03:04:39.282Z,1006.20
2018-09-28T03:05:39.289Z,1006.22
2018-09-28T03:06:39.281Z,1006.26
2018-09-28T03:07:39.269Z,1006.20
2018-09-28T03:08:39.246Z,1006.14
2018-09-28T03:09:39.235Z,1006.14
2018-09-28T03:10:39.221Z,1006.19
2018-09-28T03:11:39.235Z,1006.18
2018-09-28T03:12:39.226Z,1006.20
2018-09-28T03:13:39.193Z,1006.16
2018-09-28T03:14:39.185Z,1006.10
2018-09-28T03:15:39.172Z,1006.10
2018-09-28T03:16:39.156Z,1006.19
2018-09-28T03:17:39.164Z,1006.20
2018-09-28T03:18:39.138Z,1006.22
2018-09-28T03:19:39.129Z,1006.20
2018-09-28T03:20:39.112Z,1006.20
2018-09-28T03:21:39.103Z,1006.21
2018-09-28T03:22:39.122Z,1006.21
2018-09-28T03:23:39.085Z,1006.34
2018-09-28T03:24:39.076Z,1006.36
2018-09-28T03:25:39.065Z,1006.36
2018-09-28T03:26:39.050Z,1006.29
2018-09-28T03:27:39.039Z,1006.27
2018-09-28T03:28:39.064Z,1006.34
2018-09-28T03:29:39.086Z,1006.42
2018-09-28T03:30:39.011Z,1006.39
2018-09-28T03:31:39.002Z,1006.37
2018-09-28T03:32:39.001Z,1006.37
2018-09-28T03:33:39.019Z,1006.38
2018-09-28T03:34:38.975Z,1006.38
2018-09-28T03:35:38.952Z,1006.39
2018-09-28T03:36:38.970Z,1006.41
2018-09-28T03:37:38.953Z,1006.37
2018-09-28T03:38:38.927Z,1006.41
2018-09-28T03:39:38.917Z,1006.39
2018-09-28T03:40:39.046Z,1006.44
2018-09-28T03:41:38.891Z,1006.45
2018-09-28T03:42:39.639Z,1006.41
2018-09-28T03:43:38.891Z,1006.37
2018-09-28T03:44:38.856Z,1006.44
2018-09-28T03:45:38.855Z,1006.44
2018-09-28T03:46:38.837Z,1006.45
2018-09-28T03:47:38.845Z,1006.45
2018-09-28T03:48:38.821Z,1006.45
2018-09-28T03:49:38.807Z,1006.45
2018-09-28T03:50:38.795Z,1006.49
2018-09-28T03:51:38.788Z,1006.48
2018-09-28T03:52:38.795Z,1006.48
2018-09-28T03:53:38.788Z,1006.43
2018-09-28T03:54:38.750Z,1006.49
2018-09-28T03:55:38.737Z,1006.49
2018-09-28T03:56:38.741Z,1006.52
2018-09-28T03:57:38.720Z,1006.49
2018-09-28T03:58:38.707Z,1006.53
2018-09-28T03:59:38.719Z,1006.55
2018-09-28T04:00:38.689Z,1006.54
2018-09-28T04:01:38.680Z,1006.58
2018-09-28T04:02:38.673Z,1006.59
2018-09-28T04:03:38.659Z,1006.57
2018-09-28T04:04:38.657Z,1006.61
2018-09-28T04:05:38.630Z,1006.63
2018-09-28T04:06:38.621Z,1006.65
2018-09-28T04:07:38.644Z,1006.63
2018-09-28T04:08:38.606Z,1006.60
2018-09-28T04:09:38.592Z,1006.59
2018-09-28T04:10:38.592Z,1006.54
2018-09-28T04:11:38.599Z,1006.53
2018-09-28T04:12:38.573Z,1006.50
2018-09-28T04:13:38.550Z,1006.50
2018-09-28T04:14:38.539Z,1006.48
2018-09-28T04:15:38.529Z,1006.42
2018-09-28T04:16:38.512Z,1006.38
2018-09-28T04:17:38.522Z,1006.39
2018-09-28T04:18:38.495Z,1006.36
2018-09-28T04:19:38.495Z,1006.44
2018-09-28T04:20:38.477Z,1006.40
2018-09-28T04:21:38.481Z,1006.43
2018-09-28T04:22:38.484Z,1006.42
2018-09-28T04:23:38.462Z,1006.39
2018-09-28T04:24:38.425Z,1006.40
2018-09-28T04:25:38.416Z,1006.39
2018-09-28T04:26:38.408Z,1006.36
2018-09-28T04:27:38.541Z,1006.38
2018-09-28T04:28:38.388Z,1006.41
2018-09-28T04:29:38.384Z,1006.41
2018-09-28T04:30:38.382Z,1006.46
2018-09-28T04:31:38.352Z,1006.46
2018-09-28T04:32:38.345Z,1006.47
2018-09-28T04:33:38.354Z,1006.48
2018-09-28T04:34:38.324Z,1006.53
2018-09-28T04:35:38.313Z,1006.54
2018-09-28T04:36:38.307Z,1006.43
2018-09-28T04:37:38.305Z,1006.49
2018-09-28T04:38:38.378Z,1006.52
2018-09-28T04:39:38.264Z,1006.55
2018-09-28T04:40:38.259Z,1006.55
2018-09-28T04:41:38.245Z,1006.57
2018-09-28T04:42:38.242Z,1006.61
2018-09-28T04:43:38.229Z,1006.63
2018-09-28T04:44:38.226Z,1006.64
2018-09-28T04:45:38.223Z,1006.68
2018-09-28T04:46:38.192Z,1006.68
2018-09-28T04:47:38.183Z,1006.68
2018-09-28T04:48:38.176Z,1006.69
2018-09-28T04:49:38.178Z,1006.68
2018-09-28T04:50:38.146Z,1006.74
2018-09-28T04:51:38.134Z,1006.70
2018-09-28T04:52:38.129Z,1006.72
2018-09-28T04:53:38.118Z,1006.71
2018-09-28T04:54:38.130Z,1006.77
2018-09-28T04:55:38.106Z,1006.76
2018-09-28T04:56:38.080Z,1006.77
2018-09-28T04:57:38.072Z,1006.79
2018-09-28T04:58:38.063Z,1006.77
2018-09-28T04:59:38.058Z,1006.81
2018-09-28T05:00:38.071Z,1006.86
2018-09-28T05:01:38.033Z,1006.87
2018-09-28T05:02:38.017Z,1006.83
2018-09-28T05:03:38.020Z,1006.87
2018-09-28T05:04:38.000Z,1006.87
2018-09-28T05:05:38.004Z,1006.93
2018-09-28T05:06:37.975Z,1006.93
2018-09-28T05:07:37.983Z,1006.90
2018-09-28T05:08:37.989Z,1006.95
2018-09-28T05:09:37.950Z,1007.00
2018-09-28T05:10:37.930Z,1007.01
2018-09-28T05:11:37.919Z,1007.01
2018-09-28T05:12:37.936Z,1007.05
2018-09-28T05:13:37.920Z,1007.05
2018-09-28T05:14:37.889Z,1007.09
2018-09-28T05:15:37.890Z,1007.05
2018-09-28T05:16:37.875Z,1007.08
2018-09-28T05:17:37.857Z,1007.12
2018-09-28T05:18:37.888Z,1007.12
2018-09-28T05:19:37.939Z,1007.05
2018-09-28T05:20:37.825Z,1007.03
2018-09-28T05:21:37.813Z,1007.07
2018-09-28T05:22:37.829Z,1007.05
2018-09-28T05:23:37.821Z,1007.05
2018-09-28T05:24:37.784Z,1007.10
2018-09-28T05:25:37.773Z,1007.17
2018-09-28T05:26:37.781Z,1007.12
2018-09-28T05:27:37.755Z,1007.12
2018-09-28T05:28:37.754Z,1007.08
2018-09-28T05:29:37.726Z,1007.10
2018-09-28T05:30:44.970Z,1007.13
2018-09-28T05:31:40.078Z,1007.11
2018-09-28T05:32:37.919Z,1007.13
2018-09-28T05:33:37.704Z,1007.15
2018-09-28T05:34:37.671Z,1007.16
2018-09-28T05:35:37.661Z,1007.15
2018-09-28T05:36:37.689Z,1007.14
2018-09-28T05:37:37.675Z,1007.17
2018-09-28T05:38:37.647Z,1007.15
2018-09-28T05:39:37.677Z,1007.19
2018-09-28T05:40:37.658Z,1007.23
2018-09-28T05:41:37.703Z,1007.24
2018-09-28T05:42:37.627Z,1007.29
2018-09-28T05:43:37.620Z,1007.24
2018-09-28T05:44:37.630Z,1007.32
2018-09-28T05:45:37.559Z,1007.32
2018-09-28T05:46:37.626Z,1007.30
2018-09-28T05:47:37.537Z,1007.29
2018-09-28T05:48:37.518Z,1007.34
2018-09-28T05:49:37.534Z,1007.37
2018-09-28T05:50:37.504Z,1007.37
2018-09-28T05:51:37.492Z,1007.38
2018-09-28T05:52:37.492Z,1007.47
2018-09-28T05:53:37.470Z,1007.48
2018-09-28T05:54:37.461Z,1007.46
2018-09-28T05:55:37.447Z,1007.50
2018-09-28T05:56:37.446Z,1007.53
2018-09-28T05:57:37.458Z,1007.51
2018-09-28T05:58:37.520Z,1007.54
2018-09-28T05:59:37.424Z,1007.55
2018-09-28T06:00:37.425Z,1007.58
2018-09-28T06:01:37.436Z,1007.63
2018-09-28T06:02:37.369Z,1007.64
2018-09-28T06:03:37.381Z,1007.62
2018-09-28T06:04:37.356Z,1007.64
2018-09-28T06:05:37.551Z,1007.67
2018-09-28T06:06:37.325Z,1007.68
2018-09-28T06:07:37.314Z,1007.72
2018-09-28T06:08:37.310Z,1007.72
2018-09-28T06:09:37.319Z,1007.75
2018-09-28T06:10:37.284Z,1007.76
2018-09-28T06:11:37.286Z,1007.74
2018-09-28T06:12:37.256Z,1007.79
2018-09-28T06:13:37.248Z,1007.80
2018-09-28T06:14:37.256Z,1007.82
2018-09-28T06:15:37.224Z,1007.80
2018-09-28T06:16:37.220Z,1007.82
2018-09-28T06:17:37.228Z,1007.81
2018-09-28T06:18:37.253Z,1007.80
2018-09-28T06:19:37.207Z,1007.83
2018-09-28T06:20:37.175Z,1007.84
2018-09-28T06:21:37.230Z,1007.81
2018-09-28T06:22:37.197Z,1007.83
2018-09-28T06:23:37.147Z,1007.76
2018-09-28T06:24:37.132Z,1007.80
2018-09-28T06:25:37.126Z,1007.80
2018-09-28T06:26:37.133Z,1007.83
2018-09-28T06:27:37.098Z,1007.87
2018-09-28T06:28:37.124Z,1007.80
2018-09-28T06:29:37.114Z,1007.80
2018-09-28T06:30:37.110Z,1007.78
2018-09-28T06:31:37.058Z,1007.81
2018-09-28T06:32:37.040Z,1007.86
2018-09-28T06:33:37.041Z,1007.86
2018-09-28T06:34:37.020Z,1007.93
2018-09-28T06:35:37.060Z,1007.96
2018-09-28T06:36:37.003Z,1007.97
2018-09-28T06:37:37.007Z,1007.95
2018-09-28T06:38:37.004Z,1008.01
2018-09-28T06:39:36.966Z,1008.00
2018-09-28T06:40:36.959Z,1008.00
2018-09-28T06:41:36.947Z,1008.06
2018-09-28T06:42:36.960Z,1008.08
2018-09-28T06:43:36.978Z,1008.09
2018-09-28T06:44:36.995Z,1008.08
2018-09-28T06:45:36.902Z,1008.10
2018-09-28T06:46:36.890Z,1008.09
2018-09-28T06:47:36.892Z,1008.11
2018-09-28T06:48:36.872Z,1008.13
2018-09-28T06:49:36.892Z,1008.14
2018-09-28T06:50:36.869Z,1008.16
2018-09-28T06:51:36.839Z,1008.16
2018-09-28T06:52:36.826Z,1008.20
2018-09-28T06:53:36.857Z,1008.17
2018-09-28T06:54:36.807Z,1008.21
2018-09-28T06:55:36.813Z,1008.18
2018-09-28T06:56:36.792Z,1008.21
2018-09-28T06:57:36.772Z,1008.22
2018-09-28T06:58:36.760Z,1008.30
2018-09-28T06:59:36.746Z,1008.31
2018-09-28T07:00:36.760Z,1008.32
2018-09-28T07:01:36.771Z,1008.33
2018-09-28T07:02:36.724Z,1008.38
2018-09-28T07:03:36.768Z,1008.39
2018-09-28T07:04:36.776Z,1008.38
2018-09-28T07:05:36.800Z,1008.39
2018-09-28T07:06:36.974Z,1008.47
2018-09-28T07:07:36.917Z,1008.48
2018-09-28T07:08:36.656Z,1008.47
2018-09-28T07:09:36.644Z,1008.48
2018-09-28T07:10:36.646Z,1008.47
2018-09-28T07:11:36.618Z,1008.47
2018-09-28T07:12:36.655Z,1008.47
2018-09-28T07:13:36.606Z,1008.50
2018-09-28T07:14:36.613Z,1008.49
2018-09-28T07:15:36.625Z,1008.51
2018-09-28T07:16:36.591Z,1008.50
2018-09-28T07:17:36.574Z,1008.54
2018-09-28T07:18:36.548Z,1008.56
2018-09-28T07:19:36.548Z,1008.59
2018-09-28T07:20:36.523Z,1008.59
2018-09-28T07:21:36.511Z,1008.64
2018-09-28T07:22:36.523Z,1008.68
2018-09-28T07:23:36.494Z,1008.67
2018-09-28T07:24:36.531Z,1008.68
2018-09-28T07:25:36.500Z,1008.67
2018-09-28T07:26:36.483Z,1008.65
2018-09-28T07:27:36.478Z,1008.70
2018-09-28T07:28:36.431Z,1008.64
2018-09-28T07:29:36.427Z,1008.69
2018-09-28T07:30:36.416Z,1008.74
2018-09-28T07:31:36.419Z,1008.76
2018-09-28T07:32:36.413Z,1008.82
2018-09-28T07:33:36.389Z,1008.86
2018-09-28T07:34:36.379Z,1008.84
2018-09-28T07:35:36.363Z,1008.88
2018-09-28T07:36:36.540Z,1008.87
2018-09-28T07:37:36.357Z,1008.91
2018-09-28T07:38:36.325Z,1008.91
2018-09-28T07:39:36.316Z,1008.90
2018-09-28T07:40:36.307Z,1008.89
2018-09-28T07:41:36.319Z,1008.92
2018-09-28T07:42:36.282Z,1008.97
2018-09-28T07:43:36.276Z,1008.95
2018-09-28T07:44:36.267Z,1008.93
2018-09-28T07:45:36.284Z,1008.96
2018-09-28T07:46:36.315Z,1008.96
2018-09-28T07:47:36.254Z,1008.96
2018-09-28T07:48:36.230Z,1008.96
2018-09-28T07:49:36.207Z,1008.99
2018-09-28T07:50:36.199Z,1008.97
2018-09-28T07:51:36.189Z,1009.01
2018-09-28T07:52:36.178Z,1008.96
2018-09-28T07:53:36.214Z,1009.01
2018-09-28T07:54:36.159Z,1009.03
2018-09-28T07:55:36.187Z,1009.06
2018-09-28T07:56:36.136Z,1009.16
2018-09-28T07:57:36.120Z,1009.16
2018-09-28T07:58:36.153Z,1009.17
2018-09-28T07:59:36.107Z,1009.14
2018-09-28T08:00:36.126Z,1009.14
2018-09-28T08:01:36.084Z,1009.13
2018-09-28T08:02:36.088Z,1009.13
2018-09-28T08:03:36.059Z,1009.16
2018-09-28T08:04:36.071Z,1009.19
2018-09-28T08:05:36.050Z,1009.21
2018-09-28T08:06:36.125Z,1009.23
2018-09-28T08:07:36.072Z,1009.24
2018-09-28T08:08:36.009Z,1009.27
2018-09-28T08:09:36.017Z,1009.26
2018-09-28T08:10:35.983Z,1009.28
2018-09-28T08:11:35.987Z,1009.28
2018-09-28T08:12:35.966Z,1009.31
2018-09-28T08:13:35.957Z,1009.32
2018-09-28T08:14:35.940Z,1009.35
2018-09-28T08:15:35.946Z,1009.34
2018-09-28T08:16:35.962Z,1009.35
2018-09-28T08:17:35.920Z,1009.38
2018-09-28T08:18:35.937Z,1009.39
2018-09-28T08:19:35.887Z,1009.40
2018-09-28T08:20:35.875Z,1009.38
2018-09-28T08:21:35.880Z,1009.39
2018-09-28T08:22:35.851Z,1009.42
2018-09-28T08:23:35.864Z,1009.43
2018-09-28T08:24:35.873Z,1009.45
2018-09-28T08:25:35.828Z,1009.47
2018-09-28T08:26:35.863Z,1009.53
2018-09-28T08:27:35.905Z,1009.46
2018-09-28T08:28:35.806Z,1009.49
2018-09-28T08:29:35.786Z,1009.55
2018-09-28T08:30:35.853Z,1009.46
2018-09-28T08:31:35.760Z,1009.57
2018-09-28T08:32:35.764Z,1009.58
2018-09-28T08:33:35.753Z,1009.62
2018-09-28T08:34:35.731Z,1009.61
2018-09-28T08:35:35.711Z,1009.63
2018-09-28T08:36:35.733Z,1009.66
2018-09-28T08:37:35.700Z,1009.58
2018-09-28T08:38:35.703Z,1009.70
2018-09-28T08:39:35.695Z,1009.71
2018-09-28T08:40:35.683Z,1009.67
2018-09-28T08:41:35.645Z,1009.74
2018-09-28T08:42:35.635Z,1009.72
2018-09-28T08:43:35.723Z,1009.77
2018-09-28T08:44:35.622Z,1009.78
2018-09-28T08:45:35.678Z,1009.78
2018-09-28T08:46:35.598Z,1009.77
2018-09-28T08:47:35.614Z,1009.80
2018-09-28T08:48:35.660Z,1009.82
2018-09-28T08:49:35.639Z,1009.83
2018-09-28T08:50:35.690Z,1009.82
2018-09-28T08:51:35.541Z,1009.87
2018-09-28T08:52:35.607Z,1009.95
2018-09-28T08:53:35.539Z,1009.92
2018-09-28T08:54:35.504Z,1009.95
2018-09-28T08:55:35.495Z,1009.99
2018-09-28T08:56:35.493Z,1009.95
2018-09-28T08:57:35.498Z,1010.00
2018-09-28T08:58:35.485Z,1010.00
2018-09-28T08:59:35.462Z,1010.02
2018-09-28T09:00:35.495Z,1010.02
2018-09-28T09:01:35.430Z,1010.04
2018-09-28T09:02:35.426Z,1010.08
2018-09-28T09:03:35.419Z,1010.13
2018-09-28T09:04:35.430Z,1010.16
2018-09-28T09:05:35.385Z,1010.13
2018-09-28T09:06:35.396Z,1010.20
2018-09-28T09:07:35.367Z,1010.25
2018-09-28T09:08:35.360Z,1010.25
2018-09-28T09:09:35.370Z,1010.20
2018-09-28T09:10:35.337Z,1010.25
2018-09-28T09:11:35.343Z,1010.21
2018-09-28T09:12:35.343Z,1010.24
2018-09-28T09:13:35.298Z,1010.30
2018-09-28T09:14:35.291Z,1010.33
2018-09-28T09:15:35.281Z,1010.32
2018-09-28T09:16:35.281Z,1010.37
2018-09-28T09:17:35.280Z,1010.34
2018-09-28T09:18:35.243Z,1010.36
2018-09-28T09:19:35.242Z,1010.31
2018-09-28T09:20:35.228Z,1010.38
2018-09-28T09:21:35.228Z,1010.31
2018-09-28T09:22:35.223Z,1010.40
2018-09-28T09:23:35.194Z,1010.37
2018-09-28T09:24:35.188Z,1010.36
2018-09-28T09:25:35.167Z,1010.39
2018-09-28T09:26:35.156Z,1010.42
2018-09-28T09:27:35.172Z,1010.33
2018-09-28T09:28:35.191Z,1010.36
2018-09-28T09:29:35.179Z,1010.33
2018-09-28T09:30:35.142Z,1010.34
2018-09-28T09:31:35.193Z,1010.37
2018-09-28T09:32:35.095Z,1010.35
2018-09-28T09:33:35.113Z,1010.35
2018-09-28T09:34:35.100Z,1010.35
2018-09-28T09:35:35.075Z,1010.34
2018-09-28T09:36:35.115Z,1010.40
2018-09-28T09:37:35.035Z,1010.42
2018-09-28T09:38:35.046Z,1010.43
2018-09-28T09:39:35.020Z,1010.44
2018-09-28T09:40:35.019Z,1010.47
2018-09-28T09:41:35.001Z,1010.48
2018-09-28T09:42:35.131Z,1010.47
2018-09-28T09:43:34.975Z,1010.49
2018-09-28T09:44:34.969Z,1010.58
2018-09-28T09:45:34.953Z,1010.51
2018-09-28T09:46:34.988Z,1010.56
2018-09-28T09:47:34.952Z,1010.58
2018-09-28T09:48:34.930Z,1010.56
2018-09-28T09:49:34.915Z,1010.56
2018-09-28T09:50:34.896Z,1010.61
2018-09-28T09:51:34.923Z,1010.60
2018-09-28T09:52:34.936Z,1010.59
2018-09-28T09:53:34.869Z,1010.59
2018-09-28T09:54:34.857Z,1010.64
2018-09-28T09:55:34.857Z,1010.68
2018-09-28T09:56:34.830Z,1010.68
2018-09-28T09:57:34.873Z,1010.67
2018-09-28T09:58:34.825Z,1010.65
2018-09-28T09:59:34.815Z,1010.71
2018-09-28T10:00:34.792Z,1010.75
2018-09-28T10:01:34.799Z,1010.79
2018-09-28T10:02:35.481Z,1010.81
2018-09-28T10:03:34.775Z,1010.83
2018-09-28T10:04:34.745Z,1010.78
2018-09-28T10:05:34.737Z,1010.81
2018-09-28T10:06:36.492Z,1010.87
2018-09-28T10:07:34.717Z,1010.88
2018-09-28T10:08:34.724Z,1010.89
2018-09-28T10:09:34.820Z,1010.90
2018-09-28T10:10:34.677Z,1010.92
2018-09-28T10:11:34.674Z,1010.84
2018-09-28T10:12:34.795Z,1010.88
2018-09-28T10:13:34.711Z,1010.90
2018-09-28T10:14:34.641Z,1010.89
2018-09-28T10:15:34.646Z,1010.92
2018-09-28T10:16:34.617Z,1010.95
2018-09-28T10:17:34.606Z,1010.93
2018-09-28T10:18:34.591Z,1010.95
2018-09-28T10:19:34.606Z,1010.93
2018-09-28T10:20:34.604Z,1010.99
2018-09-28T10:21:34.604Z,1010.99
2018-09-28T10:22:34.563Z,1010.91
2018-09-28T10:23:34.561Z,1010.95
2018-09-28T10:24:34.552Z,1010.94
2018-09-28T10:25:34.523Z,1010.96
2018-09-28T10:26:34.517Z,1010.96
2018-09-28T10:27:34.531Z,1010.92
2018-09-28T10:28:34.518Z,1010.88
2018-09-28T10:29:34.471Z,1010.88
2018-09-28T10:30:34.461Z,1010.85
2018-09-28T10:31:34.454Z,1010.90
2018-09-28T10:32:35.392Z,1010.88
2018-09-28T10:33:34.573Z,1010.85
2018-09-28T10:34:34.454Z,1010.91
2018-09-28T10:35:34.415Z,1010.92
2018-09-28T10:36:34.409Z,1010.91
2018-09-28T10:37:34.385Z,1010.89
2018-09-28T10:38:34.405Z,1010.90
2018-09-28T10:39:34.407Z,1010.88
2018-09-28T10:40:34.408Z,1010.83
2018-09-28T10:41:34.346Z,1010.90
2018-09-28T10:42:34.331Z,1010.89
2018-09-28T10:43:34.340Z,1010.90
2018-09-28T10:44:34.315Z,1010.89
2018-09-28T10:45:34.356Z,1010.91
2018-09-28T10:46:34.323Z,1010.88
2018-09-28T10:47:34.284Z,1010.91
2018-09-28T10:48:34.286Z,1010.92
2018-09-28T10:49:34.265Z,1010.93
2018-09-28T10:50:34.243Z,1010.93
2018-09-28T10:51:34.255Z,1010.95
2018-09-28T10:52:34.303Z,1010.88
2018-09-28T10:53:34.270Z,1010.89
2018-09-28T10:54:34.264Z,1010.87
2018-09-28T10:55:34.265Z,1010.96
2018-09-28T10:56:34.285Z,1010.98
2018-09-28T10:57:34.176Z,1010.95
2018-09-28T10:58:34.194Z,1011.01
2018-09-28T10:59:34.156Z,1011.00
2018-09-28T11:00:34.222Z,1011.02
2018-09-28T11:01:34.144Z,1010.96
2018-09-28T11:02:34.115Z,1011.07
2018-09-28T11:03:34.114Z,1010.98
2018-09-28T11:04:34.136Z,1011.05
2018-09-28T11:05:34.092Z,1010.98
2018-09-28T11:06:34.082Z,1011.04
2018-09-28T11:07:34.094Z,1011.04
2018-09-28T11:08:34.255Z,1011.07
2018-09-28T11:09:34.093Z,1011.08
2018-09-28T11:10:34.090Z,1011.07
2018-09-28T11:11:34.042Z,1010.95
2018-09-28T11:12:34.108Z,1011.00
2018-09-28T11:13:34.017Z,1010.99
2018-09-28T11:14:34.009Z,1011.01
2018-09-28T11:15:34.119Z,1010.99
2018-09-28T11:16:33.989Z,1011.01
2018-09-28T11:17:33.959Z,1011.05
2018-09-28T11:18:33.986Z,1010.95
2018-09-28T11:19:34.015Z,1010.99
2018-09-28T11:20:33.926Z,1010.99
2018-09-28T11:21:33.914Z,1011.00
2018-09-28T11:22:33.910Z,1010.95
2018-09-28T11:23:33.922Z,1011.00
2018-09-28T11:24:33.882Z,1010.97
2018-09-28T11:25:34.099Z,1010.94
2018-09-28T11:26:33.884Z,1010.94
2018-09-28T11:27:33.891Z,1010.98
2018-09-28T11:28:33.905Z,1011.00
2018-09-28T11:29:33.876Z,1010.94
2018-09-28T11:30:33.835Z,1011.02
2018-09-28T11:31:33.892Z,1010.98
2018-09-28T11:32:33.797Z,1010.99
2018-09-28T11:33:33.839Z,1010.96
2018-09-28T11:34:33.794Z,1011.00
2018-09-28T11:35:33.793Z,1011.04
2018-09-28T11:36:33.784Z,1010.97
2018-09-28T11:37:33.809Z,1010.95
2018-09-28T11:38:33.735Z,1011.01
2018-09-28T11:39:33.838Z,1010.96
2018-09-28T11:40:33.706Z,1010.99
2018-09-28T11:41:33.701Z,1010.95
2018-09-28T11:42:33.696Z,1010.96
2018-09-28T11:43:33.693Z,1010.98
2018-09-28T11:44:33.689Z,1010.94
2018-09-28T11:45:33.674Z,1010.92
2018-09-28T11:46:33.658Z,1010.95
2018-09-28T11:47:33.631Z,1010.95
2018-09-28T11:48:33.626Z,1010.95
2018-09-28T11:49:33.632Z,1010.96
2018-09-28T11:50:33.609Z,1011.02
2018-09-28T11:51:33.623Z,1010.99
2018-09-28T11:52:33.583Z,1011.00
2018-09-28T11:53:33.590Z,1010.97
2018-09-28T11:54:33.599Z,1010.96
2018-09-28T11:55:33.574Z,1010.95
2018-09-28T11:56:33.589Z,1010.95
2018-09-28T11:57:33.645Z,1010.91
2018-09-28T11:58:33.594Z,1010.99
2018-09-28T11:59:33.503Z,1010.93
2018-09-28T12:00:33.519Z,1010.90
2018-09-28T12:01:33.486Z,1011.02
2018-09-28T12:02:33.478Z,1010.94
2018-09-28T12:03:33.475Z,1010.96
2018-09-28T12:04:33.470Z,1010.98
2018-09-28T12:05:33.456Z,1010.94